createdAt,value
2023-05-16T00:00:48.868Z,17.02
2023-05-16T00:03:15.465Z,18.33
2023-05-16T00:05:41.946Z,15.95
2023-05-16T00:08:08.405Z,18.48
2023-05-16T00:10:34.966Z,20.38
2023-05-16T00:13:01.933Z,19.90
2023-05-16T00:15:30.053Z,25.33
2023-05-16T00:17:59.358Z,21.98
2023-05-16T00:20:28.116Z,21.48
2023-05-16T00:22:55.442Z,24.45
2023-05-16T00:25:21.942Z,27.02
2023-05-16T00:27:48.576Z,22.70
2023-05-16T00:30:15.025Z,21.42
2023-05-16T00:32:41.498Z,21.52
2023-05-16T00:35:10.763Z,20.80
2023-05-16T00:37:38.501Z,17.70
2023-05-16T00:40:05.549Z,19.33
2023-05-16T00:42:32.105Z,17.80
2023-05-16T00:44:58.635Z,16.42
2023-05-16T00:47:25.452Z,16.65
2023-05-16T00:49:52.137Z,17.92
2023-05-16T00:52:18.687Z,20.52
2023-05-16T00:54:45.156Z,21.30
2023-05-16T00:57:11.751Z,29.85
2023-05-16T00:59:38.348Z,24.00
2023-05-16T01:02:05.190Z,28.40
2023-05-16T01:04:32.402Z,21.70
2023-05-16T01:06:58.940Z,18.65
2023-05-16T01:09:25.609Z,20.75
2023-05-16T01:11:56.594Z,20.95
2023-05-16T01:14:42.551Z,24.23
2023-05-16T01:17:31.904Z,21.85
2023-05-16T01:20:16.512Z,19.52
2023-05-16T01:22:49.017Z,19.90
2023-05-16T01:25:52.100Z,19.77
2023-05-16T01:28:19.991Z,16.95
2023-05-16T01:30:46.461Z,20.15
2023-05-16T01:33:13.018Z,20.38
2023-05-16T01:36:03.719Z,23.83
2023-05-16T01:38:41.898Z,21.33
2023-05-16T01:41:21.439Z,21.83
2023-05-16T01:43:51.267Z,18.33
2023-05-16T01:46:26.654Z,20.52
2023-05-16T01:48:58.648Z,21.80
2023-05-16T01:51:30.615Z,19.42
2023-05-16T01:54:01.815Z,21.10
2023-05-16T01:56:29.800Z,19.75
2023-05-16T01:58:59.100Z,23.55
2023-05-16T02:01:25.551Z,24.80
2023-05-16T02:03:52.433Z,21.08
2023-05-16T02:06:18.961Z,19.63
2023-05-16T02:08:45.404Z,19.50
2023-05-16T02:11:12.055Z,16.98
2023-05-16T02:13:38.419Z,20.58
2023-05-16T02:16:04.988Z,20.63
2023-05-16T02:18:31.991Z,17.27
2023-05-16T02:20:58.656Z,19.83
2023-05-16T02:23:25.092Z,17.27
2023-05-16T02:25:51.465Z,18.08
2023-05-16T02:28:17.862Z,22.50
2023-05-16T02:30:44.313Z,17.90
2023-05-16T02:33:11.425Z,21.02
2023-05-16T02:35:38.121Z,24.83
2023-05-16T02:38:04.498Z,22.90
2023-05-16T02:40:31.060Z,26.15
2023-05-16T02:42:57.558Z,23.60
2023-05-16T02:45:24.329Z,26.27
2023-05-16T02:47:50.832Z,19.60
2023-05-16T02:50:17.499Z,19.75
2023-05-16T02:52:43.901Z,16.48
2023-05-16T02:57:41.945Z,32.22
2023-05-16T03:00:11.561Z,43.25
2023-05-16T03:02:38.102Z,36.22
2023-05-16T03:05:06.268Z,35.25
2023-05-16T03:07:33.245Z,46.72
2023-05-16T03:09:59.752Z,37.85
2023-05-16T03:12:26.186Z,42.97
2023-05-16T03:14:52.578Z,37.97
2023-05-16T03:17:19.261Z,34.85
2023-05-16T03:19:45.857Z,37.75
2023-05-16T03:22:12.514Z,27.52
2023-05-16T03:24:38.953Z,25.63
2023-05-16T03:27:05.702Z,23.70
2023-05-16T03:29:32.146Z,21.30
2023-05-16T03:31:58.613Z,22.40
2023-05-16T03:34:25.103Z,18.05
2023-05-16T03:36:51.870Z,25.33
2023-05-16T03:39:18.371Z,27.30
2023-05-16T03:41:45.099Z,28.30
2023-05-16T03:44:11.582Z,35.28
2023-05-16T03:46:38.209Z,31.88
2023-05-16T03:49:04.629Z,52.72
2023-05-16T03:51:31.158Z,63.30
2023-05-16T03:53:58.082Z,73.13
2023-05-16T03:56:24.481Z,85.45
2023-05-16T03:58:50.901Z,107.68
2023-05-16T04:01:17.493Z,94.00
2023-05-16T04:03:43.920Z,86.57
2023-05-16T04:06:10.704Z,61.38
2023-05-16T04:08:39.492Z,43.90
2023-05-16T04:11:05.943Z,45.42
2023-05-16T04:13:32.480Z,33.70
2023-05-16T04:15:58.930Z,35.88
2023-05-16T04:18:25.831Z,31.25
2023-05-16T04:20:52.357Z,31.60
2023-05-16T04:23:18.867Z,34.42
2023-05-16T04:25:45.413Z,32.30
2023-05-16T04:28:11.956Z,45.42
2023-05-16T04:30:38.655Z,40.15
2023-05-16T04:33:05.228Z,43.83
2023-05-16T04:35:31.704Z,44.20
2023-05-16T04:37:58.306Z,52.45
2023-05-16T04:40:25.415Z,50.28
2023-05-16T04:42:53.408Z,82.13
2023-05-16T04:45:20.000Z,73.93
2023-05-16T04:47:46.557Z,75.85
2023-05-16T04:50:13.111Z,70.22
2023-05-16T04:52:39.637Z,64.38
2023-05-16T04:55:06.662Z,81.22
2023-05-16T04:57:33.121Z,73.40
2023-05-16T04:59:59.678Z,62.17
2023-05-16T05:02:27.315Z,61.75
2023-05-16T05:04:53.903Z,63.13
2023-05-16T05:07:20.770Z,53.00
2023-05-16T05:09:47.475Z,56.03
2023-05-16T05:12:14.071Z,71.25
2023-05-16T05:14:40.712Z,59.75
2023-05-16T05:17:07.201Z,50.47
2023-05-16T05:19:33.785Z,48.20
2023-05-16T05:22:00.378Z,41.53
2023-05-16T05:24:26.854Z,46.47
2023-05-16T05:26:53.628Z,51.42
2023-05-16T05:29:20.251Z,57.70
2023-05-16T05:31:46.698Z,62.85
2023-05-16T05:34:13.223Z,63.60
2023-05-16T05:36:40.054Z,49.15
2023-05-16T05:39:06.877Z,53.03
2023-05-16T05:41:33.369Z,56.70
2023-05-16T05:43:59.842Z,50.90
2023-05-16T05:46:26.477Z,49.50
2023-05-16T05:48:53.055Z,53.90
2023-05-16T05:51:19.481Z,59.42
2023-05-16T05:53:45.964Z,50.38
2023-05-16T05:56:12.431Z,48.80
2023-05-16T05:58:39.484Z,42.55
2023-05-16T06:01:05.938Z,44.28
2023-05-16T06:03:32.449Z,49.70
2023-05-16T06:05:59.140Z,48.83
2023-05-16T06:08:25.819Z,49.10
2023-05-16T06:10:52.691Z,48.08
2023-05-16T06:13:19.168Z,52.00
2023-05-16T06:15:52.948Z,45.53
2023-05-16T06:18:20.198Z,42.60
2023-05-16T06:20:46.959Z,50.70
2023-05-16T06:23:13.787Z,43.47
2023-05-16T06:25:40.360Z,47.47
2023-05-16T06:28:06.756Z,42.45
2023-05-16T06:30:33.140Z,38.53
2023-05-16T06:32:59.690Z,41.00
2023-05-16T06:35:26.504Z,46.25
2023-05-16T06:37:53.209Z,47.25
2023-05-16T06:40:19.655Z,43.85
2023-05-16T06:42:46.097Z,45.17
2023-05-16T06:45:12.554Z,37.08
2023-05-16T06:47:40.187Z,44.20
2023-05-16T06:50:07.635Z,44.88
2023-05-16T06:52:34.277Z,38.08
2023-05-16T06:55:03.316Z,45.72
2023-05-16T06:57:30.248Z,45.40
2023-05-16T06:59:56.883Z,42.22
2023-05-16T07:02:23.518Z,40.92
2023-05-16T07:04:50.020Z,36.88
2023-05-16T07:07:16.587Z,37.05
2023-05-16T07:09:43.548Z,36.33
2023-05-16T07:12:10.116Z,35.45
2023-05-16T07:14:36.620Z,31.75
2023-05-16T07:17:03.812Z,27.25
2023-05-16T07:19:30.484Z,31.05
2023-05-16T07:21:57.063Z,33.88
2023-05-16T07:24:23.639Z,30.58
2023-05-16T07:26:50.157Z,29.55
2023-05-16T07:29:16.804Z,28.23
2023-05-16T07:31:43.609Z,29.27
2023-05-16T07:34:10.929Z,31.00
2023-05-16T07:36:37.581Z,28.02
2023-05-16T07:39:04.815Z,28.38
2023-05-16T07:41:31.417Z,27.35
2023-05-16T07:43:57.863Z,26.98
2023-05-16T07:46:25.235Z,29.88
2023-05-16T07:48:51.848Z,30.38
2023-05-16T07:51:18.319Z,24.77
2023-05-16T07:53:44.796Z,24.80
2023-05-16T07:56:11.438Z,27.48
2023-05-16T07:58:37.972Z,27.92
2023-05-16T08:01:04.662Z,24.67
2023-05-16T08:03:31.664Z,22.73
2023-05-16T08:05:58.297Z,23.95
2023-05-16T08:08:24.858Z,23.40
2023-05-16T08:10:51.300Z,25.77
2023-05-16T08:13:17.950Z,23.73
2023-05-16T08:15:44.657Z,24.20
2023-05-16T08:18:15.149Z,20.55
2023-05-16T08:20:42.224Z,22.45
2023-05-16T08:23:09.833Z,22.00
2023-05-16T08:25:36.331Z,19.88
2023-05-16T08:28:02.934Z,20.00
2023-05-16T08:30:29.883Z,18.45
2023-05-16T08:32:56.407Z,16.23
2023-05-16T08:35:22.940Z,15.18
2023-05-16T08:37:49.532Z,17.88
2023-05-16T08:40:16.342Z,21.00
2023-05-16T08:42:44.698Z,17.70
2023-05-16T08:45:11.977Z,17.77
2023-05-16T08:47:41.495Z,18.00
2023-05-16T08:50:12.333Z,17.30
2023-05-16T08:52:40.682Z,18.77
2023-05-16T08:55:25.436Z,17.02
2023-05-16T08:57:53.260Z,16.67
2023-05-16T09:00:20.153Z,19.20
2023-05-16T09:02:46.776Z,17.75
2023-05-16T09:05:15.779Z,18.13
2023-05-16T09:07:43.307Z,18.48
2023-05-16T09:10:11.197Z,18.90
2023-05-16T09:12:39.934Z,18.60
2023-05-16T09:15:08.196Z,18.20
2023-05-16T09:17:40.171Z,20.15
2023-05-16T09:20:14.499Z,20.10
2023-05-16T09:22:52.869Z,19.95
2023-05-16T09:25:29.697Z,22.90
2023-05-16T09:28:00.051Z,21.75
2023-05-16T09:30:30.195Z,23.38
2023-05-16T09:32:56.939Z,21.83
2023-05-16T09:35:39.778Z,22.30
2023-05-16T09:38:17.867Z,19.50
2023-05-16T09:40:46.150Z,20.10
2023-05-16T09:43:16.648Z,23.17
2023-05-16T09:45:48.433Z,19.35
2023-05-16T09:48:17.056Z,20.42
2023-05-16T09:50:53.389Z,22.13
2023-05-16T09:53:33.412Z,19.98
2023-05-16T09:56:04.739Z,23.75
2023-05-16T09:58:33.316Z,20.45
2023-05-16T10:00:59.944Z,21.38
2023-05-16T10:03:27.382Z,22.17
2023-05-16T10:08:25.814Z,21.13
2023-05-16T10:10:54.376Z,21.80
2023-05-16T10:13:29.137Z,21.27
2023-05-16T10:15:57.098Z,18.77
2023-05-16T10:18:30.473Z,18.88
2023-05-16T10:21:01.526Z,25.17
2023-05-16T10:23:28.568Z,21.50
2023-05-16T10:25:57.653Z,23.52
2023-05-16T10:28:25.577Z,20.30
2023-05-16T10:30:53.871Z,19.80
2023-05-16T10:33:20.510Z,17.60
2023-05-16T10:35:47.067Z,18.75
2023-05-16T10:38:19.767Z,21.95
2023-05-16T10:40:47.873Z,20.10
2023-05-16T10:43:26.984Z,18.25
2023-05-16T10:46:03.218Z,19.00
2023-05-16T10:48:35.619Z,20.52
2023-05-16T10:51:03.619Z,20.67
2023-05-16T10:53:31.579Z,25.90
2023-05-16T10:56:01.241Z,20.27
2023-05-16T10:58:38.445Z,20.23
2023-05-16T11:01:24.574Z,19.05
2023-05-16T11:03:57.371Z,22.08
2023-05-16T11:06:34.164Z,24.35
2023-05-16T11:09:06.641Z,21.63
2023-05-16T11:11:49.453Z,23.15
2023-05-16T11:14:36.008Z,22.38
2023-05-16T11:17:06.865Z,24.02
2023-05-16T11:19:39.404Z,23.02
2023-05-16T11:22:09.589Z,27.25
2023-05-16T11:24:38.928Z,27.95
2023-05-16T11:27:06.418Z,27.33
2023-05-16T11:29:35.277Z,25.08
2023-05-16T11:32:06.283Z,28.00
2023-05-16T11:34:37.898Z,28.98
2023-05-16T11:37:04.716Z,25.35
2023-05-16T11:39:32.422Z,29.85
2023-05-16T11:41:59.032Z,30.40
2023-05-16T11:44:26.178Z,31.48
2023-05-16T11:46:52.875Z,31.08
2023-05-16T11:49:19.753Z,31.73
2023-05-16T11:51:46.814Z,34.25
2023-05-16T11:54:13.636Z,26.77
2023-05-16T11:56:43.452Z,30.95
2023-05-16T11:59:11.460Z,28.05
2023-05-16T12:01:40.153Z,28.58
2023-05-16T12:04:14.710Z,28.88
2023-05-16T12:06:45.885Z,26.75
2023-05-16T12:09:15.526Z,27.75
2023-05-16T12:11:44.580Z,26.35
2023-05-16T12:14:13.334Z,18.55
2023-05-16T12:16:44.087Z,20.27
2023-05-16T12:19:11.552Z,20.52
2023-05-16T12:21:38.931Z,20.30
2023-05-16T12:24:09.368Z,18.25
2023-05-16T12:26:35.834Z,18.73
2023-05-16T12:29:05.564Z,16.48
2023-05-16T12:31:37.039Z,18.05
2023-05-16T12:34:03.592Z,15.95
2023-05-16T12:36:34.956Z,16.38
2023-05-16T12:39:03.630Z,17.20
2023-05-16T12:41:31.423Z,17.70
2023-05-16T12:44:12.079Z,15.50
2023-05-16T12:46:52.348Z,14.10
2023-05-16T12:49:25.010Z,17.85
2023-05-16T12:51:52.965Z,15.80
2023-05-16T12:54:20.481Z,14.60
2023-05-16T12:59:14.354Z,14.93
2023-05-16T13:01:42.018Z,20.63
2023-05-16T13:04:09.001Z,16.23
2023-05-16T13:06:55.681Z,15.40
2023-05-16T13:09:22.316Z,15.73
2023-05-16T13:11:49.017Z,17.52
2023-05-16T13:14:15.775Z,18.20
2023-05-16T13:16:42.359Z,16.05
2023-05-16T13:19:09.385Z,13.85
2023-05-16T13:21:36.001Z,16.58
2023-05-16T13:24:02.461Z,14.23
2023-05-16T13:26:28.946Z,16.10
2023-05-16T13:28:55.732Z,16.98
2023-05-16T13:31:22.684Z,14.95
2023-05-16T13:33:49.244Z,13.38
2023-05-16T13:36:15.834Z,9.93
2023-05-16T13:38:43.866Z,10.82
2023-05-16T13:41:10.404Z,10.63
2023-05-16T13:43:36.878Z,10.77
2023-05-16T13:46:03.823Z,12.25
2023-05-16T13:48:30.425Z,11.68
2023-05-16T13:50:57.134Z,11.05
2023-05-16T13:53:23.706Z,11.05
2023-05-16T13:55:50.151Z,11.52
2023-05-16T13:58:16.683Z,10.57
2023-05-16T14:00:45.754Z,10.75
2023-05-16T14:03:13.134Z,10.60
2023-05-16T14:05:40.032Z,11.25
2023-05-16T14:08:06.708Z,10.93
2023-05-16T14:10:33.270Z,9.45
2023-05-16T14:12:59.759Z,10.30
2023-05-16T14:15:26.702Z,11.70
2023-05-16T14:17:53.546Z,14.88
2023-05-16T14:20:20.136Z,10.23
2023-05-16T14:22:46.867Z,9.48
2023-05-16T14:25:13.337Z,10.70
2023-05-16T14:27:39.817Z,8.85
2023-05-16T14:30:08.026Z,10.85
2023-05-16T14:32:34.756Z,6.85
2023-05-16T14:35:01.523Z,10.52
2023-05-16T14:37:27.955Z,6.80
2023-05-16T14:39:55.137Z,6.93
2023-05-16T14:42:22.484Z,8.40
2023-05-16T14:44:49.685Z,8.75
2023-05-16T14:47:16.488Z,7.30
2023-05-16T14:49:42.967Z,7.82
2023-05-16T14:52:09.595Z,6.28
2023-05-16T14:54:36.807Z,7.53
2023-05-16T14:57:04.076Z,7.65
2023-05-16T14:59:30.646Z,8.02
2023-05-16T15:01:57.192Z,7.57
2023-05-16T15:04:24.135Z,6.30
2023-05-16T15:06:50.620Z,6.82
2023-05-16T15:09:21.749Z,5.65
2023-05-16T15:11:48.257Z,6.22
2023-05-16T15:14:14.748Z,8.43
2023-05-16T15:16:41.215Z,6.90
2023-05-16T15:19:07.739Z,6.43
2023-05-16T15:21:34.270Z,7.10
2023-05-16T15:24:01.001Z,10.65
2023-05-16T15:26:27.664Z,6.85
2023-05-16T15:28:55.638Z,8.45
2023-05-16T15:31:22.574Z,5.43
2023-05-16T15:33:49.178Z,10.52
2023-05-16T15:36:15.724Z,6.45
2023-05-16T15:38:45.834Z,10.02
2023-05-16T15:41:18.657Z,6.40
2023-05-16T15:43:58.485Z,5.40
2023-05-16T15:46:24.937Z,6.07
2023-05-16T15:48:52.040Z,6.43
2023-05-16T15:51:19.637Z,9.57
2023-05-16T15:56:13.811Z,8.27
2023-05-16T15:58:40.452Z,7.38
2023-05-16T16:01:07.156Z,6.72
2023-05-16T16:03:33.829Z,5.85
2023-05-16T16:06:00.539Z,7.93
2023-05-16T16:08:27.095Z,6.78
2023-05-16T16:10:53.551Z,8.77
2023-05-16T16:13:21.166Z,8.48
2023-05-16T16:15:47.727Z,6.78
2023-05-16T16:18:14.471Z,7.05
2023-05-16T16:20:41.126Z,6.13
2023-05-16T16:23:08.204Z,8.10
2023-05-16T16:25:34.877Z,6.45
2023-05-16T16:28:01.398Z,7.00
2023-05-16T16:30:27.974Z,4.72
2023-05-16T16:32:54.542Z,4.82
2023-05-16T16:35:22.427Z,7.15
2023-05-16T16:38:04.870Z,9.00
2023-05-16T16:40:33.040Z,7.05
2023-05-16T16:42:59.573Z,8.68
2023-05-16T16:45:27.145Z,6.72
2023-05-16T16:47:53.725Z,8.25
2023-05-16T16:50:20.264Z,10.02
2023-05-16T16:52:46.718Z,7.93
2023-05-16T16:55:14.856Z,9.60
2023-05-16T16:57:42.455Z,5.68
2023-05-16T17:02:37.930Z,8.18
2023-05-16T17:05:05.878Z,11.80
2023-05-16T17:07:33.037Z,10.68
2023-05-16T17:10:00.941Z,8.65
2023-05-16T17:12:28.837Z,8.45
2023-05-16T17:14:57.372Z,9.57
2023-05-16T17:17:25.434Z,9.32
2023-05-16T17:19:52.828Z,5.60
2023-05-16T17:22:19.306Z,6.68
2023-05-16T17:24:45.813Z,7.90
2023-05-16T17:27:13.474Z,8.50
2023-05-16T17:32:06.561Z,6.45
2023-05-16T17:34:33.336Z,9.20
2023-05-16T17:37:00.183Z,7.82
2023-05-16T17:39:26.641Z,4.97
2023-05-16T17:41:55.095Z,7.43
2023-05-16T17:44:21.517Z,8.48
2023-05-16T17:46:48.027Z,8.30
2023-05-16T17:49:14.563Z,7.75
2023-05-16T17:51:52.837Z,4.15
2023-05-16T17:54:20.578Z,7.38
2023-05-16T17:56:48.143Z,6.50
2023-05-16T18:01:42.244Z,4.95
2023-05-16T18:04:09.294Z,7.35
2023-05-16T18:06:37.633Z,5.90
2023-05-16T18:09:07.312Z,8.00
2023-05-16T18:11:34.308Z,6.00
2023-05-16T18:14:02.125Z,9.05
2023-05-16T18:16:30.626Z,4.05
2023-05-16T18:18:58.209Z,8.25
2023-05-16T18:23:51.822Z,4.07
2023-05-16T18:26:19.322Z,6.97
2023-05-16T18:31:12.506Z,8.65
2023-05-16T18:33:39.121Z,6.68
2023-05-16T18:36:05.799Z,8.40
2023-05-16T18:38:33.453Z,6.60
2023-05-16T18:41:00.864Z,8.07
2023-05-16T18:43:27.507Z,4.75
2023-05-16T18:45:54.008Z,9.20
2023-05-16T18:48:20.679Z,3.53
2023-05-16T18:50:47.266Z,5.50
2023-05-16T18:53:14.055Z,8.48
2023-05-16T18:55:40.540Z,7.40
2023-05-16T18:58:07.099Z,7.70
2023-05-16T19:00:34.362Z,6.70
2023-05-16T19:03:01.246Z,4.93
2023-05-16T19:05:28.260Z,4.95
2023-05-16T19:07:54.962Z,8.43
2023-05-16T19:10:21.607Z,6.80
2023-05-16T19:12:49.099Z,4.93
2023-05-16T19:15:15.772Z,8.13
2023-05-16T19:17:42.504Z,6.50
2023-05-16T19:20:11.013Z,8.57
2023-05-16T19:22:37.785Z,7.30
2023-05-16T19:25:05.431Z,4.72
2023-05-16T19:27:31.991Z,5.45
2023-05-16T19:29:58.655Z,3.63
2023-05-16T19:32:25.233Z,4.78
2023-05-16T19:34:52.268Z,11.60
2023-05-16T19:37:19.102Z,5.07
2023-05-16T19:39:45.620Z,4.68
2023-05-16T19:42:12.050Z,7.32
2023-05-16T19:44:38.503Z,7.05
2023-05-16T19:47:05.266Z,6.53
2023-05-16T19:49:31.936Z,8.93
2023-05-16T19:51:58.418Z,9.18
2023-05-16T19:54:24.904Z,10.05
2023-05-16T19:56:51.440Z,8.00
2023-05-16T19:59:18.135Z,5.90
2023-05-16T20:01:44.844Z,5.53
2023-05-16T20:04:11.693Z,6.97
2023-05-16T20:06:38.497Z,9.13
2023-05-16T20:09:06.445Z,8.80
2023-05-16T20:11:33.151Z,6.15
2023-05-16T20:14:00.259Z,8.07
2023-05-16T20:16:27.269Z,6.30
2023-05-16T20:18:53.935Z,8.93
2023-05-16T20:21:20.827Z,8.55
2023-05-16T20:23:47.347Z,9.35
2023-05-16T20:26:16.429Z,7.05
2023-05-16T20:28:42.853Z,7.18
2023-05-16T20:31:09.559Z,7.80
2023-05-16T20:33:36.140Z,4.93
2023-05-16T20:36:02.730Z,4.15
2023-05-16T20:38:29.283Z,5.13
2023-05-16T20:40:56.276Z,5.60
2023-05-16T20:43:24.115Z,5.60
2023-05-16T20:45:52.002Z,4.20
2023-05-16T20:48:18.536Z,5.72
2023-05-16T20:50:45.042Z,8.50
2023-05-16T20:53:11.701Z,7.45
2023-05-16T20:55:38.533Z,4.28
2023-05-16T20:58:05.037Z,6.72
2023-05-16T21:00:33.706Z,4.68
2023-05-16T21:03:00.347Z,5.20
2023-05-16T21:05:26.962Z,3.22
2023-05-16T21:07:53.881Z,2.85
2023-05-16T21:10:20.429Z,3.50
2023-05-16T21:12:46.952Z,6.60
2023-05-16T21:15:13.684Z,4.10
2023-05-16T21:17:41.391Z,6.15
2023-05-16T21:22:35.309Z,4.25
2023-05-16T21:25:01.747Z,7.95
2023-05-16T21:27:28.185Z,3.45
2023-05-16T21:29:54.679Z,4.50
2023-05-16T21:32:21.213Z,5.95
2023-05-16T21:34:47.633Z,1.77
2023-05-16T21:37:14.118Z,3.88
2023-05-16T21:39:40.603Z,5.78
2023-05-16T21:42:07.151Z,4.07
2023-05-16T21:44:33.601Z,3.42
2023-05-16T21:47:00.063Z,6.72
2023-05-16T21:49:26.583Z,3.60
2023-05-16T21:51:53.291Z,5.53
2023-05-16T21:54:19.754Z,5.10
2023-05-16T21:56:46.172Z,4.63
2023-05-16T21:59:13.927Z,3.33
2023-05-16T22:04:07.083Z,5.05
2023-05-16T22:06:33.629Z,5.28
2023-05-16T22:09:01.579Z,2.65
2023-05-16T22:11:28.542Z,4.40
2023-05-16T22:13:55.090Z,2.63
2023-05-16T22:16:21.632Z,7.15
2023-05-16T22:18:48.185Z,8.13
2023-05-16T22:21:16.258Z,6.88
2023-05-16T22:23:42.801Z,3.22
2023-05-16T22:26:09.396Z,4.82
2023-05-16T22:28:36.134Z,4.57
2023-05-16T22:31:02.705Z,7.45
2023-05-16T22:33:29.405Z,3.70
2023-05-16T22:35:56.220Z,6.32
2023-05-16T22:38:22.696Z,4.97
2023-05-16T22:40:49.282Z,4.53
2023-05-16T22:43:15.943Z,8.50
2023-05-16T22:45:42.414Z,5.70
2023-05-16T22:48:08.996Z,5.30
2023-05-16T22:50:35.685Z,4.38
2023-05-16T22:53:02.136Z,3.35
2023-05-16T22:55:29.592Z,9.30
2023-05-16T22:57:58.354Z,3.30
2023-05-16T23:00:24.930Z,3.97
2023-05-16T23:02:51.522Z,3.60
2023-05-16T23:05:18.298Z,4.00
2023-05-16T23:07:44.836Z,2.45
2023-05-16T23:10:11.378Z,3.90
2023-05-16T23:12:37.862Z,2.67
2023-05-16T23:15:09.818Z,5.07
2023-05-16T23:17:40.179Z,2.42
2023-05-16T23:20:07.387Z,2.53
2023-05-16T23:22:33.878Z,3.20
2023-05-16T23:25:00.726Z,3.10
2023-05-16T23:27:27.234Z,8.93
2023-05-16T23:29:54.051Z,2.80
2023-05-16T23:32:20.862Z,3.88
2023-05-16T23:34:47.597Z,3.25
2023-05-16T23:37:14.751Z,4.90
2023-05-16T23:39:41.539Z,3.45
2023-05-16T23:42:08.066Z,4.35
2023-05-16T23:44:34.714Z,7.82
2023-05-16T23:47:01.194Z,8.32
2023-05-16T23:49:27.685Z,3.47
2023-05-16T23:51:57.958Z,6.70
2023-05-16T23:54:25.845Z,2.25
2023-05-16T23:56:52.527Z,4.32
2023-05-16T23:59:19.188Z,5.03
